createdAt,value
2023-03-13T00:01:53.114Z,98578.09
2023-03-13T00:04:26.301Z,98573.31
2023-03-13T00:06:59.863Z,98576.19
2023-03-13T00:09:32.929Z,98570.63
2023-03-13T00:12:06.675Z,98574.53
2023-03-13T00:14:40.174Z,98563.69
2023-03-13T00:17:14.265Z,98565.97
2023-03-13T00:19:47.121Z,98564.38
2023-03-13T00:22:19.926Z,98553.63
2023-03-13T00:24:52.709Z,98557.75
2023-03-13T00:27:25.579Z,98558.97
2023-03-13T00:29:58.369Z,98559.09
2023-03-13T00:32:32.574Z,98550.63
2023-03-13T00:35:05.971Z,98544.28
2023-03-13T00:37:38.855Z,98540.38
2023-03-13T00:40:12.724Z,98543.28
2023-03-13T00:42:45.648Z,98543.28
2023-03-13T00:45:19.148Z,98538.94
2023-03-13T00:47:54.394Z,98542.84
2023-03-13T00:50:27.283Z,98536.34
2023-03-13T00:53:00.073Z,98530.25
2023-03-13T00:55:33.922Z,98531.09
2023-03-13T00:58:06.787Z,98522.81
2023-03-13T01:00:39.815Z,98519.72
2023-03-13T01:03:14.220Z,98523.78
2023-03-13T01:05:56.089Z,98511.97
2023-03-13T01:08:30.087Z,98506.41
2023-03-13T01:11:05.472Z,98500.91
2023-03-13T01:13:39.329Z,98507.19
2023-03-13T01:16:15.394Z,98504.97
2023-03-13T01:18:51.904Z,98500.63
2023-03-13T01:21:25.671Z,98495.72
2023-03-13T01:23:58.967Z,98482.97
2023-03-13T01:26:32.286Z,98482.28
2023-03-13T01:29:05.803Z,98482.06
2023-03-13T01:31:38.842Z,98474.75
2023-03-13T01:34:14.817Z,98473.59
2023-03-13T01:36:50.588Z,98470.56
2023-03-13T01:39:23.550Z,98470.94
2023-03-13T01:41:56.365Z,98462.50
2023-03-13T01:44:29.357Z,98468.34
2023-03-13T01:47:02.704Z,98461.56
2023-03-13T01:49:54.396Z,98456.41
2023-03-13T01:52:39.295Z,98463.38
2023-03-13T01:55:21.083Z,98454.34
2023-03-13T01:57:56.473Z,98450.00
2023-03-13T02:00:34.671Z,98448.34
2023-03-13T02:03:12.342Z,98444.34
2023-03-13T02:05:50.277Z,98429.38
2023-03-13T02:08:26.682Z,98426.19
2023-03-13T02:11:08.815Z,98426.59
2023-03-13T02:13:41.680Z,98424.53
2023-03-13T02:16:14.826Z,98414.31
2023-03-13T02:18:49.598Z,98415.19
2023-03-13T02:21:38.036Z,98401.72
2023-03-13T02:24:19.490Z,98391.78
2023-03-13T02:26:53.770Z,98385.44
2023-03-13T02:29:27.341Z,98392.78
2023-03-13T02:32:00.263Z,98379.28
2023-03-13T02:34:36.573Z,98374.94
2023-03-13T02:37:12.888Z,98366.41
2023-03-13T02:39:51.217Z,98365.56
2023-03-13T02:42:26.350Z,98358.56
2023-03-13T02:44:59.253Z,98350.75
2023-03-13T02:47:33.409Z,98347.97
2023-03-13T02:50:06.713Z,98342.00
2023-03-13T02:52:44.450Z,98345.38
2023-03-13T02:55:23.680Z,98332.00
2023-03-13T02:57:58.525Z,98332.25
2023-03-13T03:00:31.437Z,98320.25
2023-03-13T03:03:04.305Z,98317.25
2023-03-13T03:05:37.250Z,98319.44
2023-03-13T03:08:10.291Z,98306.91
2023-03-13T03:10:43.518Z,98307.94
2023-03-13T03:13:17.870Z,98315.41
2023-03-13T03:15:51.077Z,98320.13
2023-03-13T03:18:24.197Z,98319.13
2023-03-13T03:20:57.167Z,98316.28
2023-03-13T03:23:30.046Z,98313.16
2023-03-13T03:26:03.139Z,98310.69
2023-03-13T03:28:39.246Z,98301.75
2023-03-13T03:31:17.089Z,98304.53
2023-03-13T03:33:50.392Z,98304.63
2023-03-13T03:36:25.466Z,98302.19
2023-03-13T03:38:59.169Z,98315.75
2023-03-13T03:41:32.996Z,98310.97
2023-03-13T03:44:08.072Z,98293.06
2023-03-13T03:46:53.824Z,98298.97
2023-03-13T03:49:27.957Z,98286.84
2023-03-13T03:52:01.546Z,98288.22
2023-03-13T03:54:39.524Z,98285.72
2023-03-13T03:57:12.778Z,98285.97
2023-03-13T03:59:50.372Z,98277.44
2023-03-13T04:02:23.313Z,98269.94
2023-03-13T04:04:56.512Z,98265.25
2023-03-13T04:07:35.522Z,98259.66
2023-03-13T04:10:09.866Z,98262.41
2023-03-13T04:12:49.431Z,98256.63
2023-03-13T04:15:24.451Z,98256.09
2023-03-13T04:17:57.231Z,98249.78
2023-03-13T04:20:30.125Z,98247.34
2023-03-13T04:23:03.280Z,98247.41
2023-03-13T04:25:36.359Z,98243.78
2023-03-13T04:28:11.121Z,98246.56
2023-03-13T04:30:50.702Z,98241.66
2023-03-13T04:33:37.371Z,98231.09
2023-03-13T04:36:45.770Z,98224.47
2023-03-13T04:39:50.836Z,98227.41
2023-03-13T04:42:44.134Z,98222.91
2023-03-13T04:45:38.247Z,98212.88
2023-03-13T04:48:33.867Z,98220.91
2023-03-13T04:51:19.619Z,98211.00
2023-03-13T04:54:06.694Z,98210.13
2023-03-13T04:56:52.266Z,98206.09
2023-03-13T04:59:47.834Z,98206.78
2023-03-13T05:02:23.707Z,98199.88
2023-03-13T05:05:16.982Z,98197.41
2023-03-13T05:08:17.978Z,98192.84
2023-03-13T05:11:11.853Z,98198.44
2023-03-13T05:14:20.278Z,98188.72
2023-03-13T05:17:22.282Z,98185.25
2023-03-13T05:20:14.350Z,98191.75
2023-03-13T05:23:00.559Z,98187.06
2023-03-13T05:25:51.518Z,98180.03
2023-03-13T05:28:40.077Z,98177.56
2023-03-13T05:31:22.027Z,98180.81
2023-03-13T05:33:55.022Z,98178.69
2023-03-13T05:36:46.363Z,98184.50
2023-03-13T05:39:38.670Z,98186.50
2023-03-13T05:42:29.810Z,98184.16
2023-03-13T05:45:25.740Z,98183.03
2023-03-13T05:48:24.679Z,98182.34
2023-03-13T05:51:09.546Z,98176.41
2023-03-13T05:54:15.650Z,98173.88
2023-03-13T05:57:10.400Z,98173.09
2023-03-13T06:00:11.031Z,98166.72
2023-03-13T06:02:51.794Z,98173.88
2023-03-13T06:05:30.972Z,98173.31
2023-03-13T06:08:05.546Z,98163.94
2023-03-13T06:10:38.518Z,98158.69
2023-03-13T06:13:19.845Z,98165.38
2023-03-13T06:15:57.912Z,98165.38
2023-03-13T06:18:51.219Z,98155.69
2023-03-13T06:21:24.220Z,98156.78
2023-03-13T06:23:57.560Z,98148.19
2023-03-13T06:26:30.393Z,98146.31
2023-03-13T06:29:04.650Z,98147.19
2023-03-13T06:31:37.707Z,98143.06
2023-03-13T06:34:12.659Z,98143.84
2023-03-13T06:36:45.591Z,98138.63
2023-03-13T06:39:18.629Z,98137.94
2023-03-13T06:41:51.685Z,98132.34
2023-03-13T06:44:26.109Z,98132.88
2023-03-13T06:46:58.937Z,98132.53
2023-03-13T06:49:32.080Z,98147.59
2023-03-13T06:52:05.490Z,98160.63
2023-03-13T06:54:38.710Z,98161.28
2023-03-13T06:57:12.124Z,98164.16
2023-03-13T06:59:46.470Z,98165.84
2023-03-13T07:02:19.479Z,98155.97
2023-03-13T07:04:52.466Z,98165.44
2023-03-13T07:07:31.775Z,98151.97
2023-03-13T07:10:06.080Z,98155.84
2023-03-13T07:12:39.178Z,98144.91
2023-03-13T07:15:13.657Z,98139.75
2023-03-13T07:17:46.517Z,98144.38
2023-03-13T07:20:19.650Z,98138.78
2023-03-13T07:22:53.665Z,98139.09
2023-03-13T07:25:26.756Z,98136.19
2023-03-13T07:28:01.058Z,98123.00
2023-03-13T07:30:35.715Z,98125.34
2023-03-13T07:33:08.659Z,98115.50
2023-03-13T07:35:41.885Z,98131.19
2023-03-13T07:38:14.750Z,98120.53
2023-03-13T07:40:51.511Z,98124.63
2023-03-13T07:43:25.257Z,98127.22
2023-03-13T07:46:00.627Z,98126.94
2023-03-13T07:48:35.129Z,98121.28
2023-03-13T07:51:10.405Z,98128.94
2023-03-13T07:53:43.490Z,98125.84
2023-03-13T07:56:18.499Z,98120.25
2023-03-13T07:58:52.623Z,98116.06
2023-03-13T08:01:30.656Z,98123.22
2023-03-13T08:04:05.566Z,98115.13
2023-03-13T08:06:39.855Z,98111.59
2023-03-13T08:09:13.386Z,98115.50
2023-03-13T08:11:46.964Z,98112.44
2023-03-13T08:14:19.724Z,98106.84
2023-03-13T08:16:53.932Z,98119.28
2023-03-13T08:19:27.080Z,98108.41
2023-03-13T08:21:59.881Z,98108.59
2023-03-13T08:24:33.020Z,98108.91
2023-03-13T08:27:06.441Z,98112.19
2023-03-13T08:29:39.310Z,98106.75
2023-03-13T08:32:13.486Z,98106.13
2023-03-13T08:34:46.731Z,98101.47
2023-03-13T08:37:19.505Z,98108.34
2023-03-13T08:39:54.239Z,98099.31
2023-03-13T08:42:27.260Z,98113.31
2023-03-13T08:45:00.087Z,98125.31
2023-03-13T08:47:34.634Z,98120.44
2023-03-13T08:50:08.892Z,98119.97
2023-03-13T08:52:41.875Z,98112.97
2023-03-13T08:55:15.105Z,98110.03
2023-03-13T08:57:48.086Z,98120.00
2023-03-13T09:00:21.938Z,98116.22
2023-03-13T09:02:58.589Z,98115.91
2023-03-13T09:05:31.449Z,98118.72
2023-03-13T09:08:04.580Z,98116.38
2023-03-13T09:10:37.763Z,98135.22
2023-03-13T09:13:10.939Z,98128.69
2023-03-13T09:15:44.131Z,98132.13
2023-03-13T09:18:18.569Z,98118.25
2023-03-13T09:20:51.980Z,98114.06
2023-03-13T09:23:25.726Z,98124.03
2023-03-13T09:25:59.038Z,98126.34
2023-03-13T09:28:32.198Z,98123.56
2023-03-13T09:31:09.278Z,98122.75
2023-03-13T09:33:45.539Z,98136.16
2023-03-13T09:36:22.077Z,98140.84
2023-03-13T09:38:57.215Z,98140.53
2023-03-13T09:41:36.401Z,98146.16
2023-03-13T09:44:15.757Z,98146.56
2023-03-13T09:46:57.318Z,98153.59
2023-03-13T09:49:36.060Z,98143.94
2023-03-13T09:52:16.350Z,98128.53
2023-03-13T09:54:53.130Z,98143.63
2023-03-13T09:57:32.904Z,98145.50
2023-03-13T10:00:14.272Z,98143.34
2023-03-13T10:03:01.511Z,98142.22
2023-03-13T10:05:35.979Z,98151.13
2023-03-13T10:08:16.301Z,98134.47
2023-03-13T10:10:53.901Z,98134.75
2023-03-13T10:13:34.867Z,98120.09
2023-03-13T10:16:11.619Z,98119.91
2023-03-13T10:18:47.027Z,98106.63
2023-03-13T10:21:23.848Z,98091.47
2023-03-13T10:24:03.108Z,98094.25
2023-03-13T10:26:39.158Z,98096.84
2023-03-13T10:29:23.766Z,98082.75
2023-03-13T10:31:59.606Z,98091.94
2023-03-13T10:34:50.578Z,98075.44
2023-03-13T10:37:27.321Z,98082.94
2023-03-13T10:40:14.750Z,98064.44
2023-03-13T10:42:47.566Z,98072.78
2023-03-13T10:45:25.503Z,98066.66
2023-03-13T10:48:02.500Z,98059.03
2023-03-13T10:50:36.857Z,98057.84
2023-03-13T10:53:22.824Z,98055.13
2023-03-13T10:55:58.960Z,98064.13
2023-03-13T10:58:36.421Z,98068.13
2023-03-13T11:01:22.680Z,98062.66
2023-03-13T11:03:57.867Z,98060.47
2023-03-13T11:06:32.269Z,98061.28
2023-03-13T11:09:14.116Z,98054.00
2023-03-13T11:11:49.370Z,98033.31
2023-03-13T11:14:23.812Z,98049.78
2023-03-13T11:17:01.753Z,98028.03
2023-03-13T11:19:59.135Z,98026.88
2023-03-13T11:22:42.876Z,98013.34
2023-03-13T11:25:24.021Z,98020.72
2023-03-13T11:28:11.336Z,98013.53
2023-03-13T11:30:54.766Z,98015.63
2023-03-13T11:33:40.429Z,97996.63
2023-03-13T11:36:21.177Z,98007.88
2023-03-13T11:38:56.453Z,97994.44
2023-03-13T11:41:43.642Z,97984.41
2023-03-13T11:44:28.713Z,97990.16
2023-03-13T11:47:16.648Z,97976.63
2023-03-13T11:50:16.725Z,97971.25
2023-03-13T11:53:02.209Z,97980.56
2023-03-13T11:55:56.789Z,97976.47
2023-03-13T11:59:02.712Z,97974.59
2023-03-13T12:01:40.769Z,97965.53
2023-03-13T12:04:18.868Z,97959.19
2023-03-13T12:06:56.332Z,97954.25
2023-03-13T12:09:34.265Z,97947.41
2023-03-13T12:12:18.264Z,97953.34
2023-03-13T12:14:58.863Z,97951.59
2023-03-13T12:17:35.777Z,97942.47
2023-03-13T12:20:14.951Z,97953.06
2023-03-13T12:22:54.051Z,97933.91
2023-03-13T12:25:31.992Z,97931.84
2023-03-13T12:28:17.775Z,97918.28
2023-03-13T12:31:00.341Z,97908.50
2023-03-13T12:33:39.105Z,97897.44
2023-03-13T12:36:19.968Z,97893.56
2023-03-13T12:38:58.667Z,97893.28
2023-03-13T12:41:38.561Z,97889.25
2023-03-13T12:44:16.523Z,97877.41
2023-03-13T12:47:02.792Z,97868.78
2023-03-13T12:50:04.527Z,97861.09
2023-03-13T12:53:14.798Z,97843.50
2023-03-13T12:56:05.119Z,97847.47
2023-03-13T12:58:45.100Z,97837.13
2023-03-13T13:01:28.709Z,97822.06
2023-03-13T13:04:12.419Z,97834.34
2023-03-13T13:06:55.293Z,97825.50
2023-03-13T13:09:30.041Z,97825.56
2023-03-13T13:12:05.148Z,97812.75
2023-03-13T13:15:07.744Z,97801.91
2023-03-13T13:17:48.884Z,97807.44
2023-03-13T13:20:49.954Z,97800.53
2023-03-13T13:23:35.042Z,97794.44
2023-03-13T13:26:40.952Z,97793.91
2023-03-13T13:29:59.541Z,97789.94
2023-03-13T13:32:46.462Z,97775.25
2023-03-13T13:35:29.637Z,97755.47
2023-03-13T13:38:36.917Z,97744.88
2023-03-13T13:41:37.045Z,97754.66
2023-03-13T13:44:23.306Z,97754.75
2023-03-13T13:46:59.522Z,97750.63
2023-03-13T13:49:36.154Z,97744.72
2023-03-13T13:52:41.539Z,97746.25
2023-03-13T13:55:44.734Z,97731.88
2023-03-13T13:58:21.869Z,97724.97
2023-03-13T14:00:59.280Z,97718.00
2023-03-13T14:03:33.720Z,97696.13
2023-03-13T14:06:19.360Z,97704.88
2023-03-13T14:08:58.588Z,97687.50
2023-03-13T14:11:36.633Z,97701.69
2023-03-13T14:14:10.535Z,97685.50
2023-03-13T14:16:46.785Z,97680.22
2023-03-13T14:19:24.611Z,97681.19
2023-03-13T14:22:02.871Z,97681.03
2023-03-13T14:24:37.756Z,97685.97
2023-03-13T14:27:22.002Z,97670.25
2023-03-13T14:30:07.364Z,97656.53
2023-03-13T14:32:40.637Z,97663.03
2023-03-13T14:35:17.409Z,97643.66
2023-03-13T14:37:53.308Z,97622.53
2023-03-13T14:40:29.773Z,97622.38
2023-03-13T14:43:04.000Z,97617.19
2023-03-13T14:45:39.110Z,97593.97
2023-03-13T14:48:20.033Z,97584.94
2023-03-13T14:51:14.241Z,97597.44
2023-03-13T14:53:58.824Z,97587.53
2023-03-13T14:56:35.488Z,97585.41
2023-03-13T14:59:16.076Z,97567.81
2023-03-13T15:02:00.587Z,97570.22
2023-03-13T15:04:59.365Z,97560.91
2023-03-13T15:07:40.782Z,97554.56
2023-03-13T15:10:21.636Z,97526.41
2023-03-13T15:12:55.988Z,97531.53
2023-03-13T15:15:29.063Z,97518.13
2023-03-13T15:18:02.185Z,97512.56
2023-03-13T15:20:35.016Z,97503.84
2023-03-13T15:23:14.617Z,97492.88
2023-03-13T15:25:48.214Z,97481.88
2023-03-13T15:28:24.717Z,97474.84
2023-03-13T15:30:57.818Z,97464.31
2023-03-13T15:33:31.350Z,97465.84
2023-03-13T15:36:04.402Z,97464.59
2023-03-13T15:38:37.425Z,97452.19
2023-03-13T15:41:10.280Z,97445.28
2023-03-13T15:43:44.401Z,97440.38
2023-03-13T15:46:17.379Z,97438.63
2023-03-13T15:48:51.551Z,97439.75
2023-03-13T15:51:24.385Z,97430.66
2023-03-13T15:53:57.483Z,97435.09
2023-03-13T15:56:35.268Z,97431.63
2023-03-13T15:59:13.467Z,97433.16
2023-03-13T16:01:50.933Z,97427.91
2023-03-13T16:04:23.803Z,97428.28
2023-03-13T16:06:58.161Z,97417.50
2023-03-13T16:09:31.115Z,97410.94
2023-03-13T16:12:03.979Z,97418.22
2023-03-13T16:14:39.370Z,97407.91
2023-03-13T16:17:15.372Z,97407.69
2023-03-13T16:19:48.755Z,97406.19
2023-03-13T16:22:21.851Z,97404.22
2023-03-13T16:24:54.873Z,97409.72
2023-03-13T16:27:29.202Z,97399.66
2023-03-13T16:30:07.400Z,97397.03
2023-03-13T16:32:40.613Z,97393.78
2023-03-13T16:35:13.604Z,97395.97
2023-03-13T16:37:46.899Z,97384.09
2023-03-13T16:40:22.074Z,97375.63
2023-03-13T16:42:55.158Z,97360.66
2023-03-13T16:45:29.601Z,97362.22
2023-03-13T16:48:02.387Z,97351.59
2023-03-13T16:50:37.632Z,97345.28
2023-03-13T16:53:10.751Z,97338.91
2023-03-13T16:55:43.506Z,97334.81
2023-03-13T16:58:16.293Z,97327.66
2023-03-13T17:01:02.905Z,97333.84
2023-03-13T17:03:37.369Z,97324.84
2023-03-13T17:06:16.904Z,97322.31
2023-03-13T17:08:49.839Z,97311.59
2023-03-13T17:11:23.628Z,97298.56
2023-03-13T17:13:57.063Z,97309.78
2023-03-13T17:16:33.938Z,97306.50
2023-03-13T17:19:07.581Z,97299.34
2023-03-13T17:21:40.976Z,97301.38
2023-03-13T17:24:13.955Z,97302.41
2023-03-13T17:26:46.710Z,97307.25
2023-03-13T17:29:20.171Z,97310.78
2023-03-13T17:31:54.661Z,97352.81
2023-03-13T17:34:30.332Z,97372.03
2023-03-13T17:37:06.265Z,97358.94
2023-03-13T17:39:39.074Z,97366.34
2023-03-13T17:42:12.516Z,97361.72
2023-03-13T17:44:45.428Z,97373.69
2023-03-13T17:47:23.628Z,97375.88
2023-03-13T17:49:56.460Z,97381.59
2023-03-13T17:52:29.616Z,97384.84
2023-03-13T17:55:03.339Z,97383.53
2023-03-13T17:57:36.257Z,97370.94
2023-03-13T18:00:20.187Z,97384.94
2023-03-13T18:02:54.476Z,97382.22
2023-03-13T18:05:27.899Z,97367.31
2023-03-13T18:08:00.727Z,97339.16
2023-03-13T18:10:33.759Z,97358.00
2023-03-13T18:13:22.110Z,97359.25
2023-03-13T18:15:55.052Z,97362.78
2023-03-13T18:18:31.663Z,97364.19
2023-03-13T18:21:04.864Z,97368.28
2023-03-13T18:23:37.997Z,97360.25
2023-03-13T18:26:22.020Z,97366.16
2023-03-13T18:28:59.983Z,97358.47
2023-03-13T18:31:35.962Z,97363.00
2023-03-13T18:34:11.301Z,97381.03
2023-03-13T18:36:44.544Z,97388.75
2023-03-13T18:39:18.602Z,97382.28
2023-03-13T18:41:52.401Z,97363.56
2023-03-13T18:44:25.291Z,97359.56
2023-03-13T18:46:58.182Z,97363.19
2023-03-13T18:49:32.375Z,97350.84
2023-03-13T18:52:05.660Z,97337.16
2023-03-13T18:54:38.768Z,97326.91
2023-03-13T18:57:14.255Z,97316.66
2023-03-13T18:59:48.143Z,97296.66
2023-03-13T19:02:21.132Z,97298.81
2023-03-13T19:04:55.670Z,97326.59
2023-03-13T19:07:30.406Z,97317.00
2023-03-13T19:10:04.322Z,97262.44
2023-03-13T19:12:37.455Z,97261.44
2023-03-13T19:15:11.194Z,97291.25
2023-03-13T19:17:44.837Z,97296.91
2023-03-13T19:20:22.672Z,97310.19
2023-03-13T19:22:58.069Z,97317.19
2023-03-13T19:25:31.130Z,97338.38
2023-03-13T19:28:04.132Z,97353.66
2023-03-13T19:30:37.437Z,97344.50
2023-03-13T19:33:10.314Z,97309.28
2023-03-13T19:35:44.754Z,97266.34
2023-03-13T19:38:17.723Z,97299.06
2023-03-13T19:40:50.694Z,97294.16
2023-03-13T19:43:24.012Z,97294.91
2023-03-13T19:45:56.903Z,97300.41
2023-03-13T19:48:29.980Z,97325.28
2023-03-13T19:51:04.637Z,97322.88
2023-03-13T19:53:38.700Z,97323.25
2023-03-13T19:56:17.573Z,97322.59
2023-03-13T19:58:51.901Z,97317.88
2023-03-13T20:01:25.117Z,97329.22
2023-03-13T20:03:58.383Z,97328.78
2023-03-13T20:06:34.902Z,97339.69
2023-03-13T20:09:10.172Z,97336.84
2023-03-13T20:11:43.650Z,97337.72
2023-03-13T20:14:16.611Z,97330.38
2023-03-13T20:16:49.740Z,97330.69
2023-03-13T20:19:23.975Z,97339.16
2023-03-13T20:22:00.571Z,97387.78
2023-03-13T20:24:34.339Z,97395.50
2023-03-13T20:27:07.560Z,97391.25
2023-03-13T20:29:41.470Z,97403.78
2023-03-13T20:32:14.826Z,97413.97
2023-03-13T20:34:50.172Z,97425.91
2023-03-13T20:37:25.585Z,97445.91
2023-03-13T20:39:58.597Z,97452.97
2023-03-13T20:42:31.793Z,97450.78
2023-03-13T20:45:05.070Z,97429.00
2023-03-13T20:47:38.035Z,97421.16
2023-03-13T20:50:13.148Z,97425.25
2023-03-13T20:52:48.685Z,97417.13
2023-03-13T20:55:21.554Z,97420.28
2023-03-13T20:57:54.387Z,97438.75
2023-03-13T21:00:27.432Z,97462.31
2023-03-13T21:03:00.591Z,97481.28
2023-03-13T21:05:33.528Z,97488.09
2023-03-13T21:08:08.383Z,97480.50
2023-03-13T21:10:42.705Z,97465.16
2023-03-13T21:13:15.699Z,97461.47
2023-03-13T21:15:48.615Z,97455.09
2023-03-13T21:18:21.541Z,97447.28
2023-03-13T21:20:54.452Z,97435.66
2023-03-13T21:23:29.106Z,97398.88
2023-03-13T21:26:02.043Z,97369.59
2023-03-13T21:28:34.992Z,97321.38
2023-03-13T21:31:12.846Z,97292.19
2023-03-13T21:33:46.807Z,97288.06
2023-03-13T21:36:21.941Z,97322.09
2023-03-13T21:38:56.483Z,97334.53
2023-03-13T21:41:29.364Z,97316.81
2023-03-13T21:44:02.333Z,97312.09
2023-03-13T21:46:35.373Z,97309.66
2023-03-13T21:49:08.284Z,97316.00
2023-03-13T21:51:41.317Z,97283.03
2023-03-13T21:54:15.539Z,97291.09
2023-03-13T21:56:48.448Z,97287.53
2023-03-13T21:59:25.270Z,97289.97
2023-03-13T22:01:58.185Z,97285.19
2023-03-13T22:04:31.307Z,97285.34
2023-03-13T22:07:04.168Z,97287.53
2023-03-13T22:09:38.628Z,97303.31
2023-03-13T22:12:12.417Z,97315.84
2023-03-13T22:14:46.404Z,97330.72
2023-03-13T22:17:19.801Z,97309.50
2023-03-13T22:19:52.992Z,97305.16
2023-03-13T22:22:26.692Z,97294.97
2023-03-13T22:25:00.905Z,97275.75
2023-03-13T22:27:34.012Z,97272.47
2023-03-13T22:30:08.439Z,97263.94
2023-03-13T22:32:41.472Z,97242.50
2023-03-13T22:35:14.351Z,97235.41
2023-03-13T22:37:47.445Z,97235.41
2023-03-13T22:40:21.865Z,97224.38
2023-03-13T22:42:54.793Z,97219.25
2023-03-13T22:45:27.793Z,97220.03
2023-03-13T22:48:06.095Z,97209.16
2023-03-13T22:50:38.924Z,97205.28
2023-03-13T22:53:11.790Z,97193.81
2023-03-13T22:55:45.981Z,97194.47
2023-03-13T22:58:18.860Z,97193.22
2023-03-13T23:00:52.047Z,97193.81
2023-03-13T23:03:24.993Z,97198.31
2023-03-13T23:05:57.815Z,97189.47
2023-03-13T23:08:30.643Z,97204.84
2023-03-13T23:11:05.773Z,97197.47
2023-03-13T23:13:39.266Z,97186.09
2023-03-13T23:16:13.593Z,97199.13
2023-03-13T23:18:46.508Z,97198.53
2023-03-13T23:21:19.504Z,97200.38
2023-03-13T23:23:54.888Z,97193.56
2023-03-13T23:26:29.150Z,97182.88
2023-03-13T23:29:02.252Z,97182.53
2023-03-13T23:31:35.134Z,97187.69
2023-03-13T23:34:07.966Z,97196.47
2023-03-13T23:36:40.773Z,97210.88
2023-03-13T23:39:13.616Z,97217.25
2023-03-13T23:41:47.771Z,97211.06
2023-03-13T23:44:20.641Z,97211.38
2023-03-13T23:46:53.543Z,97225.91
2023-03-13T23:49:26.325Z,97247.91
2023-03-13T23:51:59.462Z,97256.06
2023-03-13T23:54:32.308Z,97284.75
2023-03-13T23:57:06.870Z,97287.41
2023-03-13T23:59:39.900Z,97293.00
